createdAt,value
2019-02-25T00:01:39.325Z,0.68
2019-02-25T00:04:07.246Z,0.68
2019-02-25T00:06:35.162Z,0.67
2019-02-25T00:09:04.487Z,0.59
2019-02-25T00:11:32.321Z,0.59
2019-02-25T00:13:59.971Z,0.44
2019-02-25T00:16:27.582Z,0.40
2019-02-25T00:18:55.008Z,0.46
2019-02-25T00:21:22.865Z,0.32
2019-02-25T00:23:50.166Z,0.17
2019-02-25T00:26:17.968Z,0.26
2019-02-25T00:28:45.853Z,0.18
2019-02-25T00:31:13.216Z,0.20
2019-02-25T00:33:40.332Z,0.12
2019-02-25T00:36:08.131Z,0.22
2019-02-25T00:38:36.043Z,0.24
2019-02-25T00:41:03.481Z,0.18
2019-02-25T00:43:31.580Z,0.23
2019-02-25T00:45:59.827Z,0.43
2019-02-25T00:48:27.423Z,0.15
2019-02-25T00:50:55.185Z,0.34
2019-02-25T00:53:23.261Z,0.32
2019-02-25T00:55:50.546Z,0.17
2019-02-25T00:58:17.788Z,0.12
2019-02-25T01:00:45.574Z,0.04
2019-02-25T01:03:12.966Z,0.16
2019-02-25T01:05:41.339Z,0.21
2019-02-25T01:08:09.414Z,-0.04
2019-02-25T01:10:37.267Z,-0.01
2019-02-25T01:13:08.074Z,-0.02
2019-02-25T01:15:35.769Z,-0.17
2019-02-25T01:18:03.747Z,-0.16
2019-02-25T01:20:31.481Z,-0.11
2019-02-25T01:22:59.175Z,0.01
2019-02-25T01:25:27.374Z,-0.01
2019-02-25T01:27:54.518Z,-0.13
2019-02-25T01:30:22.682Z,-0.29
2019-02-25T01:32:49.967Z,-0.28
2019-02-25T01:35:17.385Z,-0.24
2019-02-25T01:37:45.289Z,-0.15
2019-02-25T01:40:13.265Z,-0.18
2019-02-25T01:42:40.592Z,-0.29
2019-02-25T01:45:10.075Z,-0.26
2019-02-25T01:47:37.560Z,-0.25
2019-02-25T01:50:05.912Z,-0.45
2019-02-25T01:52:33.822Z,-0.47
2019-02-25T01:55:02.402Z,-0.50
2019-02-25T01:57:30.226Z,-0.46
2019-02-25T01:59:57.991Z,-0.42
2019-02-25T02:02:25.115Z,-0.43
2019-02-25T02:04:53.447Z,-0.37
2019-02-25T02:07:20.799Z,-0.53
2019-02-25T02:09:48.234Z,-0.51
2019-02-25T02:12:16.054Z,-0.52
2019-02-25T02:14:43.313Z,-0.69
2019-02-25T02:17:14.149Z,-0.65
2019-02-25T02:19:41.636Z,-0.62
2019-02-25T02:22:09.374Z,-0.47
2019-02-25T02:24:48.744Z,-0.33
2019-02-25T02:27:16.681Z,-0.64
2019-02-25T02:29:44.920Z,-0.72
2019-02-25T02:32:12.874Z,-0.67
2019-02-25T02:34:41.441Z,-0.75
2019-02-25T02:37:09.155Z,-0.80
2019-02-25T02:39:36.619Z,-0.77
2019-02-25T02:42:22.710Z,-0.77
2019-02-25T02:44:57.438Z,-0.90
2019-02-25T02:47:35.542Z,-0.83
2019-02-25T02:50:04.047Z,-0.89
2019-02-25T02:52:31.482Z,-0.88
2019-02-25T02:54:58.878Z,-0.84
2019-02-25T02:57:26.185Z,-1.00
2019-02-25T02:59:55.792Z,-0.90
2019-02-25T03:02:22.927Z,-0.93
2019-02-25T03:04:50.083Z,-0.92
2019-02-25T03:07:17.622Z,-0.98
2019-02-25T03:09:44.906Z,-0.74
2019-02-25T03:12:12.947Z,-0.69
2019-02-25T03:14:41.176Z,-0.93
2019-02-25T03:17:08.458Z,-0.82
2019-02-25T03:19:35.938Z,-0.61
2019-02-25T03:22:03.337Z,-0.64
2019-02-25T03:24:30.636Z,-0.75
2019-02-25T03:26:58.321Z,-0.90
2019-02-25T03:29:25.767Z,-1.25
2019-02-25T03:31:53.709Z,-1.22
2019-02-25T03:34:21.164Z,-1.20
2019-02-25T03:36:48.738Z,-1.26
2019-02-25T03:39:16.981Z,-1.24
2019-02-25T03:41:44.730Z,-1.30
2019-02-25T03:44:12.775Z,-1.41
2019-02-25T03:46:40.694Z,-1.48
2019-02-25T03:49:08.328Z,-1.44
2019-02-25T03:51:36.651Z,-1.40
2019-02-25T03:54:04.468Z,-1.40
2019-02-25T03:56:32.959Z,-1.40
2019-02-25T03:59:00.645Z,-1.45
2019-02-25T04:01:28.467Z,-1.42
2019-02-25T04:03:55.768Z,-1.50
2019-02-25T04:06:23.733Z,-1.48
2019-02-25T04:08:52.197Z,-1.39
2019-02-25T04:11:20.276Z,-1.43
2019-02-25T04:13:48.101Z,-1.39
2019-02-25T04:16:16.267Z,-1.49
2019-02-25T04:18:43.594Z,-1.42
2019-02-25T04:21:10.995Z,-1.43
2019-02-25T04:23:38.435Z,-1.49
2019-02-25T04:26:08.369Z,-1.46
2019-02-25T04:28:35.972Z,-1.43
2019-02-25T04:31:03.339Z,-1.45
2019-02-25T04:33:30.980Z,-1.50
2019-02-25T04:35:58.648Z,-1.52
2019-02-25T04:38:26.770Z,-1.57
2019-02-25T04:40:53.874Z,-1.51
2019-02-25T04:43:21.573Z,-1.59
2019-02-25T04:45:49.327Z,-1.62
2019-02-25T04:48:19.739Z,-1.66
2019-02-25T04:50:48.004Z,-1.62
2019-02-25T04:53:15.499Z,-1.66
2019-02-25T04:55:43.256Z,-1.71
2019-02-25T04:58:11.348Z,-1.74
2019-02-25T05:00:39.007Z,-1.68
2019-02-25T05:03:06.595Z,-1.70
2019-02-25T05:05:34.559Z,-1.73
2019-02-25T05:08:02.110Z,-1.63
2019-02-25T05:10:29.564Z,-1.51
2019-02-25T05:13:00.437Z,-1.59
2019-02-25T05:15:28.556Z,-1.67
2019-02-25T05:17:55.973Z,-1.79
2019-02-25T05:20:23.658Z,-1.88
2019-02-25T05:22:51.289Z,-1.93
2019-02-25T05:25:19.281Z,-1.93
2019-02-25T05:27:46.584Z,-1.97
2019-02-25T05:30:14.833Z,-1.97
2019-02-25T05:32:42.956Z,-1.89
2019-02-25T05:35:10.864Z,-1.81
2019-02-25T05:37:38.375Z,-1.90
2019-02-25T05:40:10.682Z,-1.84
2019-02-25T05:42:38.246Z,-1.90
2019-02-25T05:45:05.953Z,-1.81
2019-02-25T05:47:33.104Z,-1.86
2019-02-25T05:50:00.310Z,-1.83
2019-02-25T05:52:28.085Z,-1.96
2019-02-25T05:54:56.239Z,-1.85
2019-02-25T05:57:23.905Z,-1.89
2019-02-25T05:59:51.235Z,-1.89
2019-02-25T06:02:18.745Z,-1.85
2019-02-25T06:04:46.579Z,-1.94
2019-02-25T06:07:14.382Z,-1.92
2019-02-25T06:09:42.589Z,-1.97
2019-02-25T06:12:10.124Z,-1.93
2019-02-25T06:14:38.116Z,-1.88
2019-02-25T06:17:05.760Z,-1.91
2019-02-25T06:19:33.406Z,-1.88
2019-02-25T06:22:00.889Z,-1.86
2019-02-25T06:24:28.148Z,-1.86
2019-02-25T06:26:56.022Z,-1.94
2019-02-25T06:29:23.756Z,-1.88
2019-02-25T06:31:51.605Z,-1.95
2019-02-25T06:34:20.836Z,-1.89
2019-02-25T06:36:48.414Z,-1.93
2019-02-25T06:39:15.935Z,-1.92
2019-02-25T06:41:43.614Z,-1.86
2019-02-25T06:44:11.372Z,-1.89
2019-02-25T06:46:39.402Z,-1.91
2019-02-25T06:49:07.079Z,-1.83
2019-02-25T06:51:34.350Z,-1.77
2019-02-25T06:54:01.919Z,-1.75
2019-02-25T06:56:29.611Z,-1.67
2019-02-25T06:58:56.898Z,-1.67
2019-02-25T07:01:24.273Z,-1.66
2019-02-25T07:04:20.747Z,-1.59
2019-02-25T07:06:55.732Z,-1.58
2019-02-25T07:09:39.960Z,-1.53
2019-02-25T07:12:21.903Z,-1.49
2019-02-25T07:14:56.112Z,-1.39
2019-02-25T07:17:33.413Z,-1.30
2019-02-25T07:20:19.174Z,-1.27
2019-02-25T07:23:06.132Z,-1.18
2019-02-25T07:25:55.553Z,-1.11
2019-02-25T07:28:43.013Z,-0.98
2019-02-25T07:31:18.039Z,-0.75
2019-02-25T07:33:56.310Z,-0.36
2019-02-25T07:37:01.226Z,0.20
2019-02-25T07:39:38.581Z,0.73
2019-02-25T07:42:11.528Z,1.00
2019-02-25T07:45:10.209Z,1.19
2019-02-25T07:48:00.770Z,1.40
2019-02-25T07:50:47.119Z,1.57
2019-02-25T07:53:15.664Z,1.91
2019-02-25T07:56:18.089Z,2.31
2019-02-25T07:58:56.193Z,2.97
2019-02-25T08:01:55.521Z,3.55
2019-02-25T08:04:28.273Z,4.08
2019-02-25T08:07:03.545Z,4.31
2019-02-25T08:10:05.489Z,4.56
2019-02-25T08:12:46.682Z,5.16
2019-02-25T08:15:23.553Z,5.86
2019-02-25T08:18:16.177Z,5.84
2019-02-25T08:20:52.338Z,5.95
2019-02-25T08:23:38.447Z,6.28
2019-02-25T08:26:16.234Z,6.51
2019-02-25T08:29:01.302Z,6.98
2019-02-25T08:31:42.360Z,7.26
2019-02-25T08:34:34.934Z,7.41
2019-02-25T08:37:19.152Z,7.68
2019-02-25T08:39:57.264Z,8.00
2019-02-25T08:42:42.009Z,8.40
2019-02-25T08:45:16.450Z,8.54
2019-02-25T08:47:56.593Z,8.70
2019-02-25T08:50:24.551Z,8.83
2019-02-25T08:52:52.055Z,9.18
2019-02-25T08:55:19.971Z,9.30
2019-02-25T08:57:47.815Z,9.61
2019-02-25T09:00:15.215Z,9.75
2019-02-25T09:02:48.873Z,10.26
2019-02-25T09:05:16.786Z,10.57
2019-02-25T09:07:44.680Z,10.69
2019-02-25T09:10:13.500Z,10.61
2019-02-25T09:12:42.071Z,10.82
2019-02-25T09:15:10.437Z,10.97
2019-02-25T09:17:43.101Z,11.15
2019-02-25T09:20:11.210Z,11.24
2019-02-25T09:22:39.154Z,11.54
2019-02-25T09:25:07.548Z,11.60
2019-02-25T09:27:35.599Z,11.68
2019-02-25T09:30:05.039Z,11.78
2019-02-25T09:32:33.440Z,11.78
2019-02-25T09:35:01.000Z,11.92
2019-02-25T09:37:28.971Z,12.28
2019-02-25T09:39:56.576Z,12.28
2019-02-25T09:42:24.514Z,12.40
2019-02-25T09:44:54.296Z,12.82
2019-02-25T09:47:21.535Z,13.12
2019-02-25T09:49:50.957Z,13.34
2019-02-25T09:52:18.490Z,13.74
2019-02-25T09:54:46.583Z,13.97
2019-02-25T09:57:13.995Z,14.17
2019-02-25T09:59:41.563Z,14.24
2019-02-25T10:02:09.598Z,14.30
2019-02-25T10:04:36.962Z,14.11
2019-02-25T10:07:04.807Z,14.20
2019-02-25T10:09:32.670Z,14.12
2019-02-25T10:12:00.260Z,14.09
2019-02-25T10:14:27.621Z,14.21
2019-02-25T10:16:55.312Z,14.25
2019-02-25T10:19:23.042Z,14.37
2019-02-25T10:21:50.980Z,14.64
2019-02-25T10:24:20.562Z,15.03
2019-02-25T10:26:48.306Z,15.46
2019-02-25T10:29:15.835Z,15.63
2019-02-25T10:31:43.846Z,16.08
2019-02-25T10:34:12.076Z,16.54
2019-02-25T10:36:39.411Z,16.98
2019-02-25T10:39:12.617Z,17.06
2019-02-25T10:41:40.810Z,17.64
2019-02-25T10:44:08.886Z,17.55
2019-02-25T10:46:36.034Z,17.80
2019-02-25T10:49:11.219Z,18.31
2019-02-25T10:51:34.713Z,18.57
2019-02-25T10:54:02.656Z,18.58
2019-02-25T10:56:49.394Z,18.73
2019-02-25T10:59:17.441Z,19.05
2019-02-25T11:01:45.799Z,19.39
2019-02-25T11:04:15.428Z,19.65
2019-02-25T11:06:44.058Z,19.49
2019-02-25T11:09:24.921Z,19.43
2019-02-25T11:11:54.894Z,19.65
2019-02-25T11:14:22.282Z,19.84
2019-02-25T11:16:50.475Z,20.02
2019-02-25T11:19:19.173Z,19.88
2019-02-25T11:21:46.863Z,19.99
2019-02-25T11:24:16.168Z,20.09
2019-02-25T11:26:43.975Z,20.17
2019-02-25T11:29:13.785Z,20.29
2019-02-25T11:31:41.970Z,20.35
2019-02-25T11:34:11.677Z,20.45
2019-02-25T11:36:38.897Z,20.40
2019-02-25T11:39:09.438Z,20.49
2019-02-25T11:41:38.895Z,20.37
2019-02-25T11:44:06.638Z,20.47
2019-02-25T11:46:34.408Z,20.30
2019-02-25T11:49:01.830Z,20.63
2019-02-25T11:51:29.959Z,20.46
2019-02-25T11:53:59.458Z,20.39
2019-02-25T11:56:27.065Z,20.35
2019-02-25T11:58:54.777Z,20.15
2019-02-25T12:01:22.190Z,20.45
2019-02-25T12:03:49.949Z,20.14
2019-02-25T12:06:17.608Z,20.38
2019-02-25T12:08:45.543Z,20.52
2019-02-25T12:11:13.214Z,20.18
2019-02-25T12:13:40.459Z,20.20
2019-02-25T12:16:08.159Z,20.02
2019-02-25T12:18:35.471Z,19.86
2019-02-25T12:21:04.042Z,19.81
2019-02-25T12:23:31.743Z,19.56
2019-02-25T12:25:59.853Z,19.61
2019-02-25T12:28:27.317Z,19.65
2019-02-25T12:30:54.610Z,19.50
2019-02-25T12:33:22.215Z,19.33
2019-02-25T12:35:50.271Z,19.43
2019-02-25T12:38:18.059Z,19.14
2019-02-25T12:40:45.818Z,18.65
2019-02-25T12:43:13.805Z,18.45
2019-02-25T12:45:42.276Z,18.33
2019-02-25T12:48:11.310Z,17.70
2019-02-25T12:50:38.628Z,17.63
2019-02-25T12:53:06.426Z,17.53
2019-02-25T12:55:34.586Z,17.51
2019-02-25T12:58:01.824Z,17.46
2019-02-25T13:00:30.124Z,17.40
2019-02-25T13:02:57.385Z,17.19
2019-02-25T13:05:24.929Z,17.09
2019-02-25T13:07:52.983Z,16.93
2019-02-25T13:10:21.215Z,16.83
2019-02-25T13:12:51.299Z,16.87
2019-02-25T13:15:18.589Z,16.64
2019-02-25T13:17:46.185Z,16.63
2019-02-25T13:20:13.831Z,16.66
2019-02-25T13:22:41.560Z,16.59
2019-02-25T13:25:13.332Z,16.39
2019-02-25T13:27:41.627Z,16.25
2019-02-25T13:30:12.620Z,16.31
2019-02-25T13:32:40.095Z,16.35
2019-02-25T13:35:07.823Z,16.37
2019-02-25T13:37:35.836Z,16.26
2019-02-25T13:40:04.886Z,16.36
2019-02-25T13:42:32.674Z,16.29
2019-02-25T13:45:00.090Z,16.21
2019-02-25T13:47:28.213Z,16.13
2019-02-25T13:49:55.644Z,16.22
2019-02-25T13:52:23.261Z,16.14
2019-02-25T13:54:50.501Z,16.00
2019-02-25T13:57:18.577Z,16.00
2019-02-25T13:59:45.829Z,15.96
2019-02-25T14:02:13.206Z,15.90
2019-02-25T14:04:40.655Z,16.03
2019-02-25T14:07:08.763Z,16.10
2019-02-25T14:09:36.639Z,15.94
2019-02-25T14:12:04.283Z,15.84
2019-02-25T14:14:31.790Z,15.72
2019-02-25T14:16:59.853Z,15.70
2019-02-25T14:19:27.458Z,15.64
2019-02-25T14:21:56.121Z,15.75
2019-02-25T14:24:23.921Z,15.73
2019-02-25T14:26:54.483Z,15.63
2019-02-25T14:29:21.917Z,15.66
2019-02-25T14:31:51.104Z,15.67
2019-02-25T14:34:19.459Z,15.78
2019-02-25T14:36:48.476Z,15.72
2019-02-25T14:39:27.833Z,15.74
2019-02-25T14:41:54.396Z,15.65
2019-02-25T14:44:21.737Z,15.75
2019-02-25T14:46:49.503Z,15.79
2019-02-25T14:49:18.048Z,15.64
2019-02-25T14:51:47.399Z,15.71
2019-02-25T14:54:15.693Z,15.75
2019-02-25T14:56:44.902Z,15.71
2019-02-25T14:59:15.062Z,15.77
2019-02-25T15:01:42.192Z,15.80
2019-02-25T15:04:10.076Z,15.76
2019-02-25T15:06:37.745Z,15.83
2019-02-25T15:09:10.360Z,15.88
2019-02-25T15:11:37.155Z,15.81
2019-02-25T15:14:06.207Z,15.87
2019-02-25T15:16:35.765Z,15.88
2019-02-25T15:19:03.645Z,15.85
2019-02-25T15:21:31.742Z,15.95
2019-02-25T15:24:00.503Z,16.05
2019-02-25T15:26:30.275Z,15.96
2019-02-25T15:29:00.350Z,15.91
2019-02-25T15:31:28.124Z,15.97
2019-02-25T15:33:57.940Z,15.99
2019-02-25T15:36:26.962Z,15.90
2019-02-25T15:38:54.576Z,15.94
2019-02-25T15:41:22.310Z,15.95
2019-02-25T15:43:49.828Z,15.86
2019-02-25T15:46:19.597Z,15.90
2019-02-25T15:48:47.765Z,15.92
2019-02-25T15:51:18.183Z,15.84
2019-02-25T15:53:48.640Z,15.83
2019-02-25T15:56:15.569Z,15.78
2019-02-25T15:58:43.414Z,15.78
2019-02-25T16:01:14.294Z,15.69
2019-02-25T16:03:46.586Z,15.60
2019-02-25T16:06:14.959Z,15.57
2019-02-25T16:08:49.869Z,15.49
2019-02-25T16:11:18.338Z,15.41
2019-02-25T16:13:46.253Z,15.45
2019-02-25T16:16:13.623Z,15.38
2019-02-25T16:18:42.597Z,15.38
2019-02-25T16:21:11.202Z,15.26
2019-02-25T16:23:41.317Z,15.16
2019-02-25T16:26:11.116Z,15.10
2019-02-25T16:28:39.934Z,14.94
2019-02-25T16:31:10.563Z,14.98
2019-02-25T16:33:42.564Z,14.91
2019-02-25T16:36:10.993Z,14.79
2019-02-25T16:38:38.241Z,14.65
2019-02-25T16:41:07.917Z,14.56
2019-02-25T16:43:36.258Z,14.55
2019-02-25T16:46:06.124Z,14.39
2019-02-25T16:48:33.287Z,14.33
2019-02-25T16:51:02.724Z,14.15
2019-02-25T16:53:34.693Z,14.14
2019-02-25T16:56:02.895Z,14.10
2019-02-25T16:58:32.062Z,13.87
2019-02-25T17:01:03.189Z,13.82
2019-02-25T17:03:31.096Z,13.80
2019-02-25T17:05:58.636Z,13.69
2019-02-25T17:08:26.469Z,13.44
2019-02-25T17:10:57.705Z,13.36
2019-02-25T17:13:25.810Z,13.17
2019-02-25T17:15:53.838Z,13.29
2019-02-25T17:18:21.469Z,13.16
2019-02-25T17:20:50.345Z,12.77
2019-02-25T17:23:25.083Z,12.86
2019-02-25T17:25:52.063Z,12.81
2019-02-25T17:28:20.748Z,12.63
2019-02-25T17:30:49.703Z,12.60
2019-02-25T17:33:16.920Z,12.46
2019-02-25T17:35:45.339Z,12.39
2019-02-25T17:38:14.110Z,12.25
2019-02-25T17:40:41.490Z,12.17
2019-02-25T17:43:11.262Z,12.18
2019-02-25T17:45:41.057Z,12.12
2019-02-25T17:48:11.074Z,12.03
2019-02-25T17:50:39.843Z,11.90
2019-02-25T17:53:09.738Z,11.74
2019-02-25T17:55:38.031Z,11.76
2019-02-25T17:58:05.917Z,11.73
2019-02-25T18:00:38.787Z,11.66
2019-02-25T18:03:06.293Z,11.62
2019-02-25T18:05:35.949Z,11.54
2019-02-25T18:08:05.342Z,11.39
2019-02-25T18:10:33.630Z,11.26
2019-02-25T18:13:05.990Z,11.46
2019-02-25T18:15:32.322Z,11.43
2019-02-25T18:18:00.863Z,11.29
2019-02-25T18:20:28.930Z,11.10
2019-02-25T18:22:57.263Z,11.13
2019-02-25T18:25:25.213Z,10.95
2019-02-25T18:27:53.822Z,10.59
2019-02-25T18:30:28.191Z,10.69
2019-02-25T18:32:58.321Z,10.35
2019-02-25T18:35:26.418Z,10.65
2019-02-25T18:37:54.086Z,10.77
2019-02-25T18:40:22.283Z,10.74
2019-02-25T18:42:50.720Z,10.75
2019-02-25T18:45:20.485Z,10.66
2019-02-25T18:47:49.034Z,10.55
2019-02-25T18:50:19.954Z,10.51
2019-02-25T18:52:47.844Z,10.47
2019-02-25T18:55:17.569Z,10.36
2019-02-25T18:57:46.555Z,10.05
2019-02-25T19:00:26.324Z,10.23
2019-02-25T19:02:56.082Z,9.98
2019-02-25T19:05:25.401Z,9.93
2019-02-25T19:07:55.411Z,9.91
2019-02-25T19:10:26.863Z,9.96
2019-02-25T19:12:56.367Z,9.93
2019-02-25T19:15:24.757Z,9.83
2019-02-25T19:17:54.306Z,9.71
2019-02-25T19:20:22.534Z,9.71
2019-02-25T19:22:50.421Z,9.69
2019-02-25T19:25:20.815Z,9.58
2019-02-25T19:27:49.921Z,9.58
2019-02-25T19:30:19.772Z,9.48
2019-02-25T19:32:47.723Z,9.30
2019-02-25T19:35:17.709Z,9.29
2019-02-25T19:37:46.769Z,8.96
2019-02-25T19:40:19.419Z,8.88
2019-02-25T19:42:49.243Z,8.94
2019-02-25T19:45:17.633Z,8.94
2019-02-25T19:47:45.910Z,8.84
2019-02-25T19:50:13.818Z,8.82
2019-02-25T19:52:42.035Z,8.73
2019-02-25T19:55:13.070Z,8.62
2019-02-25T19:57:42.445Z,8.54
2019-02-25T20:00:14.872Z,8.41
2019-02-25T20:02:44.074Z,8.41
2019-02-25T20:05:12.408Z,8.29
2019-02-25T20:07:41.103Z,8.29
2019-02-25T20:10:11.609Z,8.08
2019-02-25T20:12:39.126Z,8.07
2019-02-25T20:15:11.259Z,8.06
2019-02-25T20:17:39.886Z,7.85
2019-02-25T20:20:10.990Z,7.85
2019-02-25T20:22:38.791Z,7.69
2019-02-25T20:25:07.869Z,7.72
2019-02-25T20:27:35.850Z,7.69
2019-02-25T20:30:07.149Z,7.67
2019-02-25T20:32:36.494Z,7.65
2019-02-25T20:35:06.703Z,7.53
2019-02-25T20:37:35.787Z,7.45
2019-02-25T20:40:04.359Z,7.49
2019-02-25T20:42:32.748Z,7.39
2019-02-25T20:45:02.762Z,7.31
2019-02-25T20:47:33.041Z,7.28
2019-02-25T20:50:03.179Z,7.07
2019-02-25T20:52:30.222Z,7.03
2019-02-25T20:54:57.524Z,7.07
2019-02-25T20:57:25.629Z,7.00
2019-02-25T20:59:55.286Z,6.94
2019-02-25T21:02:24.050Z,6.83
2019-02-25T21:04:53.558Z,6.80
2019-02-25T21:07:21.514Z,6.58
2019-02-25T21:09:49.992Z,6.65
2019-02-25T21:12:20.140Z,6.53
2019-02-25T21:14:47.537Z,6.45
2019-02-25T21:17:15.112Z,6.26
2019-02-25T21:19:44.239Z,6.30
2019-02-25T21:22:11.730Z,6.25
2019-02-25T21:24:38.962Z,6.31
2019-02-25T21:27:08.595Z,6.22
2019-02-25T21:29:38.825Z,6.19
2019-02-25T21:32:06.414Z,6.05
2019-02-25T21:34:34.014Z,5.89
2019-02-25T21:37:03.009Z,5.74
2019-02-25T21:39:31.993Z,5.65
2019-02-25T21:42:00.146Z,5.49
2019-02-25T21:44:29.043Z,5.38
2019-02-25T21:46:58.414Z,5.23
2019-02-25T21:49:27.232Z,5.17
2019-02-25T21:51:55.507Z,5.07
2019-02-25T21:54:23.471Z,5.08
2019-02-25T21:56:51.276Z,5.00
2019-02-25T21:59:18.713Z,4.87
2019-02-25T22:01:46.489Z,4.71
2019-02-25T22:04:15.565Z,4.61
2019-02-25T22:06:42.838Z,4.69
2019-02-25T22:09:10.477Z,4.69
2019-02-25T22:11:37.642Z,4.61
2019-02-25T22:14:05.033Z,4.40
2019-02-25T22:16:33.133Z,4.45
2019-02-25T22:19:00.715Z,4.26
2019-02-25T22:21:28.447Z,4.31
2019-02-25T22:24:00.859Z,4.43
2019-02-25T22:26:29.022Z,4.19
2019-02-25T22:28:55.780Z,4.21
2019-02-25T22:31:24.997Z,4.29
2019-02-25T22:33:52.225Z,4.18
2019-02-25T22:36:20.233Z,3.95
2019-02-25T22:38:47.709Z,4.15
2019-02-25T22:41:16.740Z,4.19
2019-02-25T22:43:46.477Z,4.02
2019-02-25T22:46:13.617Z,3.92
2019-02-25T22:48:43.137Z,3.95
2019-02-25T22:51:11.086Z,3.86
2019-02-25T22:53:38.696Z,3.87
2019-02-25T22:56:09.086Z,4.05
2019-02-25T22:58:38.295Z,4.04
2019-02-25T23:01:15.624Z,4.08
2019-02-25T23:03:44.936Z,3.88
2019-02-25T23:06:13.473Z,3.76
2019-02-25T23:08:44.050Z,3.81
2019-02-25T23:11:14.160Z,3.60
2019-02-25T23:13:40.520Z,3.72
2019-02-25T23:16:08.479Z,3.80
2019-02-25T23:18:35.962Z,3.42
2019-02-25T23:21:03.780Z,3.40
2019-02-25T23:23:32.906Z,3.33
2019-02-25T23:26:01.257Z,3.55
2019-02-25T23:28:30.501Z,3.37
2019-02-25T23:30:57.927Z,3.46
2019-02-25T23:33:27.041Z,3.26
2019-02-25T23:35:56.004Z,3.14
2019-02-25T23:38:23.760Z,3.09
2019-02-25T23:40:51.143Z,3.03
2019-02-25T23:43:19.070Z,3.06
2019-02-25T23:45:47.104Z,3.12
2019-02-25T23:48:14.708Z,3.05
2019-02-25T23:50:42.123Z,3.17
2019-02-25T23:53:10.156Z,3.07
2019-02-25T23:55:37.657Z,2.89
2019-02-25T23:58:07.701Z,3.08
